Elizabeth R — WDG5460 — position and weather

sailwx.info

Track history (hours):
 
Tides and Currents Weather Stations Pressure Air Temp Water Temp Dewpoint Dewpoint Depression Visibility Wind Speed Wind Dir Waves Ship Positions

Elizabeth R

Owner: Kirby Inland Marine LP, Houston, TX. More information available from US FCC via Universal Licensing System and Coast Guard Vessel Documentation Center.

Last reported at 2018-May-27 02:18 UTC. Time now 2018-May-27 03:11 UTC.
Position N 29°45' W 095°06'.

Length 120 m; draft 2.7 m.

Type: . MMSI: 367546910.

Date/timePositionNaut miles runAvg speedWind from/ knotsBaromVisibWave heightAir tempDewpointWater temp
2018-May-27 02:18N 29°45' W 095°06'0 0.0
2018-May-27 01:57N 29°45' W 095°06'1 0.5
2018-May-27 00:10N 29°46' W 095°06'0 0.0
2018-May-26 23:59N 29°46' W 095°06'0 0.0
2018-May-26 23:30N 29°46' W 095°06'0 0.0
2018-May-26 22:59N 29°46' W 095°06'0 0.1
2018-May-26 22:29N 29°46' W 095°06'2 0.0
2018-May-25 11:38N 29°47' W 095°05'5 1.7
2018-May-25 08:53N 29°44' W 095°09'5 0.2
2018-May-24 08:23N 29°44' W 095°03'2 4.0
2018-May-24 07:48N 29°43' W 095°01'1 4.1
2018-May-24 07:28N 29°42' W 094°60'1 2.2
2018-May-24 07:01N 29°41' W 094°60'0 0.8
2018-May-24 06:30N 29°41' W 095°00'1 2.4
2018-May-24 06:00N 29°41' W 094°59'3 5.4
2018-May-24 05:30N 29°38' W 094°58'3 5.4
2018-May-24 04:55N 29°35' W 094°56'2 5.9
2018-May-24 04:30N 29°33' W 094°55'3 5.7
2018-May-24 04:01N 29°31' W 094°53'8 5.8
2018-May-24 02:34N 29°23' W 094°49'1 5.0
2018-May-24 02:24N 29°23' W 094°48'2 4.0
2018-May-24 02:00N 29°21' W 094°49'2 4.3
2018-May-24 01:31N 29°20' W 094°51'3 5.3
2018-May-24 01:00N 29°18' W 094°53'2 4.3
2018-May-24 00:30N 29°17' W 094°55'3 5.1
2018-May-24 00:01N 29°17' W 094°58'2 4.8
2018-May-23 23:30N 29°15' W 095°00'2 4.6
2018-May-23 23:00N 29°13' W 095°02'2 4.4
2018-May-23 22:30N 29°12' W 095°04'2 4.8
2018-May-23 22:00N 29°11' W 095°06'2 4.9
2018-May-23 21:30N 29°09' W 095°08'2 4.6
2018-May-23 21:01N 29°08' W 095°10'2 4.2
2018-May-23 20:31N 29°06' W 095°12'2 4.4
2018-May-23 20:01N 29°04' W 095°13'2 4.6
2018-May-23 19:31N 29°02' W 095°14'3 5.0
2018-May-23 18:59N 28°60' W 095°15'3 4.9
2018-May-23 18:28N 28°58' W 095°17'2 5.2
2018-May-23 17:59N 28°56' W 095°19'2 4.6
2018-May-23 17:29N 28°55' W 095°21'0 0.8
2018-May-23 17:00N 28°55' W 095°22'0 0.0
2018-May-23 15:45N 28°55' W 095°22'0 0.0
2018-May-23 15:30N 28°55' W 095°22'0 0.0
2018-May-23 15:01N 28°55' W 095°22'0 0.0
2018-May-23 14:30N 28°55' W 095°22'0 0.0
2018-May-23 14:00N 28°55' W 095°22'0 0.0
2018-May-23 13:30N 28°55' W 095°22'0 0.0
2018-May-23 13:00N 28°55' W 095°22'0 0.0
2018-May-23 12:31N 28°55' W 095°22'0 0.0
2018-May-23 12:00N 28°55' W 095°22'0 0.0
2018-May-23 11:27N 28°55' W 095°22'1 1.2
2018-May-23 11:00N 28°54' W 095°22'  
2018-May-19 10:54N 29°01' W 095°14'2 4.7
2018-May-19 10:30N 29°03' W 095°13'3 5.2
2018-May-19 10:00N 29°05' W 095°12'2 5.0
2018-May-19 09:30N 29°07' W 095°11'3 5.6
2018-May-19 09:00N 29°09' W 095°09'3 5.3
2018-May-19 08:31N 29°10' W 095°06'0 0.2
2018-May-19 08:00N 29°11' W 095°06'2 4.8
2018-May-19 07:30N 29°12' W 095°04'3 5.0
2018-May-19 07:00N 29°14' W 095°02'3 5.6
2018-May-19 06:30N 29°16' W 094°60'2 5.0
2018-May-19 06:00N 29°17' W 094°57'2 4.6
2018-May-19 05:30N 29°17' W 094°55'2 4.5
2018-May-19 05:00N 29°18' W 094°53'2 3.9
2018-May-19 04:30N 29°20' W 094°51'2 4.7
2018-May-19 04:00N 29°21' W 094°49'3 5.9
2018-May-19 03:27N 29°24' W 094°49'3 7.0
2018-May-19 02:58N 29°27' W 094°51'3 6.6
2018-May-19 02:30N 29°30' W 094°52'3 6.3
2018-May-19 02:00N 29°33' W 094°54'3 6.1
2018-May-19 01:30N 29°35' W 094°56'3 6.0
2018-May-19 01:00N 29°38' W 094°58'3 6.3
2018-May-19 00:30N 29°41' W 094°59'3 5.6
2018-May-18 23:56N 29°44' W 095°01'3 0.5
2018-May-18 17:11N 29°46' W 095°04'1 0.1
2018-May-18 12:32N 29°46' W 095°05'1 2.6
2018-May-18 12:20N 29°46' W 095°04'0 1.3
2018-May-18 11:58N 29°46' W 095°05'1 1.5
2018-May-18 11:30N 29°46' W 095°05'0 0.2
2018-May-18 10:41N 29°46' W 095°06'0 0.0
2018-May-18 10:28N 29°46' W 095°06'0 0.0
2018-May-18 10:00N 29°46' W 095°06'0 0.0
2018-May-18 09:30N 29°46' W 095°06'0 0.0
2018-May-18 08:59N 29°46' W 095°06'0 0.0
2018-May-18 08:30N 29°46' W 095°06'0 0.0
2018-May-18 08:00N 29°46' W 095°06'0 0.0
2018-May-18 07:30N 29°46' W 095°06'0 0.0
2018-May-18 07:00N 29°46' W 095°06'0 0.0
2018-May-18 06:30N 29°46' W 095°06'0 0.0
2018-May-18 06:00N 29°46' W 095°06'0 0.0
2018-May-18 05:30N 29°46' W 095°06'0 0.0
2018-May-18 04:59N 29°46' W 095°06'0 0.0
2018-May-18 04:30N 29°46' W 095°06'0 0.0
2018-May-18 03:59N 29°46' W 095°06'0 0.0
2018-May-18 03:26N 29°46' W 095°06'0 0.0
2018-May-18 03:00N 29°46' W 095°06'0 0.0
2018-May-18 02:30N 29°46' W 095°06'0 0.0
2018-May-18 02:00N 29°46' W 095°06'1 0.7
2018-May-18 00:04N 29°47' W 095°05'1 0.5
2018-May-17 21:48N 29°46' W 095°05'1 0.1
2018-May-17 13:23N 29°46' W 095°06'0 0.0
2018-May-17 13:00N 29°46' W 095°06'0 0.0
2018-May-17 12:30N 29°46' W 095°06'0 0.3
2018-May-17 11:56N 29°46' W 095°06'1 1.2
2018-May-17 11:30N 29°45' W 095°06'1 1.4
2018-May-17 11:00N 29°45' W 095°06'0 0.0
2018-May-17 08:35N 29°45' W 095°06'0 0.0
2018-May-17 08:30N 29°45' W 095°06'0 0.0
2018-May-17 08:00N 29°45' W 095°06'0 0.0
2018-May-17 05:13N 29°45' W 095°06'0 0.0
2018-May-17 04:38N 29°45' W 095°06'0 0.0
2018-May-17 04:01N 29°45' W 095°06'0 0.6
2018-May-17 04:00N 29°45' W 095°06'0 0.0
2018-May-17 03:28N 29°45' W 095°06'  
Track history (hours):
 
Tides and Currents Weather Stations Pressure Air Temp Water Temp Dewpoint Dewpoint Depression Visibility Wind Speed Wind Dir Waves Ship Positions

Elizabeth R

Owner: Kirby Inland Marine LP, Houston, TX. More information available from US FCC via Universal Licensing System and Coast Guard Vessel Documentation Center.

Last reported at 2018-May-27 02:18 UTC. Time now 2018-May-27 03:11 UTC.
Position N 29°45' W 095°06'.

Length 120 m; draft 2.7 m.

Type: . MMSI: 367546910.

Date/timePositionNaut miles runAvg speedWind from/ knotsBaromVisibWave heightAir tempDewpointWater temp
2018-May-27 02:18N 29°45' W 095°06'0 0.0
2018-May-27 01:57N 29°45' W 095°06'1 0.5
2018-May-27 00:10N 29°46' W 095°06'0 0.0
2018-May-26 23:59N 29°46' W 095°06'0 0.0
2018-May-26 23:30N 29°46' W 095°06'0 0.0
2018-May-26 22:59N 29°46' W 095°06'0 0.1
2018-May-26 22:29N 29°46' W 095°06'2 0.0
2018-May-25 11:38N 29°47' W 095°05'5 1.7
2018-May-25 08:53N 29°44' W 095°09'5 0.2
2018-May-24 08:23N 29°44' W 095°03'2 4.0
2018-May-24 07:48N 29°43' W 095°01'1 4.1
2018-May-24 07:28N 29°42' W 094°60'1 2.2
2018-May-24 07:01N 29°41' W 094°60'0 0.8
2018-May-24 06:30N 29°41' W 095°00'1 2.4
2018-May-24 06:00N 29°41' W 094°59'3 5.4
2018-May-24 05:30N 29°38' W 094°58'3 5.4
2018-May-24 04:55N 29°35' W 094°56'2 5.9
2018-May-24 04:30N 29°33' W 094°55'3 5.7
2018-May-24 04:01N 29°31' W 094°53'8 5.8
2018-May-24 02:34N 29°23' W 094°49'1 5.0
2018-May-24 02:24N 29°23' W 094°48'2 4.0
2018-May-24 02:00N 29°21' W 094°49'2 4.3
2018-May-24 01:31N 29°20' W 094°51'3 5.3
2018-May-24 01:00N 29°18' W 094°53'2 4.3
2018-May-24 00:30N 29°17' W 094°55'3 5.1
2018-May-24 00:01N 29°17' W 094°58'2 4.8
2018-May-23 23:30N 29°15' W 095°00'2 4.6
2018-May-23 23:00N 29°13' W 095°02'2 4.4
2018-May-23 22:30N 29°12' W 095°04'2 4.8
2018-May-23 22:00N 29°11' W 095°06'2 4.9
2018-May-23 21:30N 29°09' W 095°08'2 4.6
2018-May-23 21:01N 29°08' W 095°10'2 4.2
2018-May-23 20:31N 29°06' W 095°12'2 4.4
2018-May-23 20:01N 29°04' W 095°13'2 4.6
2018-May-23 19:31N 29°02' W 095°14'3 5.0
2018-May-23 18:59N 28°60' W 095°15'3 4.9
2018-May-23 18:28N 28°58' W 095°17'2 5.2
2018-May-23 17:59N 28°56' W 095°19'2 4.6
2018-May-23 17:29N 28°55' W 095°21'0 0.8
2018-May-23 17:00N 28°55' W 095°22'0 0.0
2018-May-23 15:45N 28°55' W 095°22'0 0.0
2018-May-23 15:30N 28°55' W 095°22'0 0.0
2018-May-23 15:01N 28°55' W 095°22'0 0.0
2018-May-23 14:30N 28°55' W 095°22'0 0.0
2018-May-23 14:00N 28°55' W 095°22'0 0.0
2018-May-23 13:30N 28°55' W 095°22'0 0.0
2018-May-23 13:00N 28°55' W 095°22'0 0.0
2018-May-23 12:31N 28°55' W 095°22'0 0.0
2018-May-23 12:00N 28°55' W 095°22'0 0.0
2018-May-23 11:27N 28°55' W 095°22'1 1.2
2018-May-23 11:00N 28°54' W 095°22'  
2018-May-19 10:54N 29°01' W 095°14'2 4.7
2018-May-19 10:30N 29°03' W 095°13'3 5.2
2018-May-19 10:00N 29°05' W 095°12'2 5.0
2018-May-19 09:30N 29°07' W 095°11'3 5.6
2018-May-19 09:00N 29°09' W 095°09'3 5.3
2018-May-19 08:31N 29°10' W 095°06'0 0.2
2018-May-19 08:00N 29°11' W 095°06'2 4.8
2018-May-19 07:30N 29°12' W 095°04'3 5.0
2018-May-19 07:00N 29°14' W 095°02'3 5.6
2018-May-19 06:30N 29°16' W 094°60'2 5.0
2018-May-19 06:00N 29°17' W 094°57'2 4.6
2018-May-19 05:30N 29°17' W 094°55'2 4.5
2018-May-19 05:00N 29°18' W 094°53'2 3.9
2018-May-19 04:30N 29°20' W 094°51'2 4.7
2018-May-19 04:00N 29°21' W 094°49'3 5.9
2018-May-19 03:27N 29°24' W 094°49'3 7.0
2018-May-19 02:58N 29°27' W 094°51'3 6.6
2018-May-19 02:30N 29°30' W 094°52'3 6.3
2018-May-19 02:00N 29°33' W 094°54'3 6.1
2018-May-19 01:30N 29°35' W 094°56'3 6.0
2018-May-19 01:00N 29°38' W 094°58'3 6.3
2018-May-19 00:30N 29°41' W 094°59'3 5.6
2018-May-18 23:56N 29°44' W 095°01'3 0.5
2018-May-18 17:11N 29°46' W 095°04'1 0.1
2018-May-18 12:32N 29°46' W 095°05'1 2.6
2018-May-18 12:20N 29°46' W 095°04'0 1.3
2018-May-18 11:58N 29°46' W 095°05'1 1.5
2018-May-18 11:30N 29°46' W 095°05'0 0.2
2018-May-18 10:41N 29°46' W 095°06'0 0.0
2018-May-18 10:28N 29°46' W 095°06'0 0.0
2018-May-18 10:00N 29°46' W 095°06'0 0.0
2018-May-18 09:30N 29°46' W 095°06'0 0.0
2018-May-18 08:59N 29°46' W 095°06'0 0.0
2018-May-18 08:30N 29°46' W 095°06'0 0.0
2018-May-18 08:00N 29°46' W 095°06'0 0.0
2018-May-18 07:30N 29°46' W 095°06'0 0.0
2018-May-18 07:00N 29°46' W 095°06'0 0.0
2018-May-18 06:30N 29°46' W 095°06'0 0.0
2018-May-18 06:00N 29°46' W 095°06'0 0.0
2018-May-18 05:30N 29°46' W 095°06'0 0.0
2018-May-18 04:59N 29°46' W 095°06'0 0.0
2018-May-18 04:30N 29°46' W 095°06'0 0.0
2018-May-18 03:59N 29°46' W 095°06'0 0.0
2018-May-18 03:26N 29°46' W 095°06'0 0.0
2018-May-18 03:00N 29°46' W 095°06'0 0.0
2018-May-18 02:30N 29°46' W 095°06'0 0.0
2018-May-18 02:00N 29°46' W 095°06'1 0.7
2018-May-18 00:04N 29°47' W 095°05'1 0.5
2018-May-17 21:48N 29°46' W 095°05'1 0.1
2018-May-17 13:23N 29°46' W 095°06'0 0.0
2018-May-17 13:00N 29°46' W 095°06'0 0.0
2018-May-17 12:30N 29°46' W 095°06'0 0.3
2018-May-17 11:56N 29°46' W 095°06'1 1.2
2018-May-17 11:30N 29°45' W 095°06'1 1.4
2018-May-17 11:00N 29°45' W 095°06'0 0.0
2018-May-17 08:35N 29°45' W 095°06'0 0.0
2018-May-17 08:30N 29°45' W 095°06'0 0.0
2018-May-17 08:00N 29°45' W 095°06'0 0.0
2018-May-17 05:13N 29°45' W 095°06'0 0.0
2018-May-17 04:38N 29°45' W 095°06'0 0.0
2018-May-17 04:01N 29°45' W 095°06'0 0.6
2018-May-17 04:00N 29°45' W 095°06'0 0.0
2018-May-17 03:28N 29°45' W 095°06'  

Dump ship's entire track history